sensor_id;sensor_type;location;lat;lon;timestamp;pressure;altitude;pressure_sealevel;temperature;humidity
6028;BME280;3042;43.194;27.646;2023-03-20T00:00:27;101879.22;;;11.62;100.00
6028;BME280;3042;43.194;27.646;2023-03-20T00:02:54;101675.16;;;10.21;100.00
6028;BME280;3042;43.194;27.646;2023-03-20T00:05:23;102181.00;;;13.01;100.00
6028;BME280;3042;43.194;27.646;2023-03-20T00:07:51;102147.53;;;12.61;100.00
6028;BME280;3042;43.194;27.646;2023-03-20T00:10:19;101978.47;;;11.62;100.00
6028;BME280;3042;43.194;27.646;2023-03-20T00:12:48;101921.84;;;11.39;100.00
6028;BME280;3042;43.194;27.646;2023-03-20T00:15:25;102165.88;;;12.94;100.00
6028;BME280;3042;43.194;27.646;2023-03-20T00:17:52;102139.59;;;12.58;100.00
6028;BME280;3042;43.194;27.646;2023-03-20T00:20:20;102161.06;;;12.70;100.00
6028;BME280;3042;43.194;27.646;2023-03-20T00:22:48;101799.13;;;10.63;100.00
6028;BME280;3042;43.194;27.646;2023-03-20T00:25:16;102153.91;;;12.66;100.00
6028;BME280;3042;43.194;27.646;2023-03-20T00:27:44;102090.59;;;12.18;100.00
6028;BME280;3042;43.194;27.646;2023-03-20T00:30:24;102160.88;;;12.67;100.00
6028;BME280;3042;43.194;27.646;2023-03-20T00:32:54;102165.25;;;12.68;100.00
6028;BME280;3042;43.194;27.646;2023-03-20T00:35:24;102161.72;;;12.23;100.00
6028;BME280;3042;43.194;27.646;2023-03-20T00:37:52;102141.84;;;12.09;100.00
6028;BME280;3042;43.194;27.646;2023-03-20T00:40:20;102144.25;;;12.49;100.00
6028;BME280;3042;43.194;27.646;2023-03-20T00:42:50;102076.66;;;12.16;100.00
6028;BME280;3042;43.194;27.646;2023-03-20T00:45:23;102158.53;;;12.27;100.00
6028;BME280;3042;43.194;27.646;2023-03-20T00:47:50;102062.91;;;11.60;100.00
6028;BME280;3042;43.194;27.646;2023-03-20T00:50:20;102151.03;;;12.46;100.00
6028;BME280;3042;43.194;27.646;2023-03-20T00:52:48;102141.38;;;12.59;100.00
6028;BME280;3042;43.194;27.646;2023-03-20T00:55:16;101837.66;;;10.73;100.00
6028;BME280;3042;43.194;27.646;2023-03-20T00:57:47;102156.16;;;12.60;100.00
6028;BME280;3042;43.194;27.646;2023-03-20T01:00:32;101971.84;;;11.68;100.00
6028;BME280;3042;43.194;27.646;2023-03-20T01:03:05;102159.97;;;12.52;100.00
6028;BME280;3042;43.194;27.646;2023-03-20T01:05:36;102164.44;;;12.39;100.00
6028;BME280;3042;43.194;27.646;2023-03-20T01:08:08;102140.75;;;12.78;100.00
6028;BME280;3042;43.194;27.646;2023-03-20T01:10:35;101982.03;;;11.65;100.00
6028;BME280;3042;43.194;27.646;2023-03-20T01:13:02;102139.69;;;12.74;100.00
6028;BME280;3042;43.194;27.646;2023-03-20T01:15:32;102131.53;;;12.83;100.00
6028;BME280;3042;43.194;27.646;2023-03-20T01:17:59;101902.00;;;11.25;100.00
6028;BME280;3042;43.194;27.646;2023-03-20T01:20:28;102127.94;;;12.96;100.00
6028;BME280;3042;43.194;27.646;2023-03-20T01:22:55;102131.00;;;12.88;100.00
6028;BME280;3042;43.194;27.646;2023-03-20T01:25:23;101995.34;;;12.14;100.00
6028;BME280;3042;43.194;27.646;2023-03-20T01:27:52;102125.97;;;13.06;100.00
6028;BME280;3042;43.194;27.646;2023-03-20T01:30:23;101707.72;;;10.75;100.00
6028;BME280;3042;43.194;27.646;2023-03-20T01:32:52;102113.78;;;13.05;100.00
6028;BME280;3042;43.194;27.646;2023-03-20T01:35:21;102110.78;;;12.98;100.00
6028;BME280;3042;43.194;27.646;2023-03-20T01:37:50;102107.34;;;12.99;100.00
6028;BME280;3042;43.194;27.646;2023-03-20T01:40:30;102072.53;;;12.79;100.00
6028;BME280;3042;43.194;27.646;2023-03-20T01:42:59;102068.97;;;12.62;100.00
6028;BME280;3042;43.194;27.646;2023-03-20T01:45:31;102130.44;;;13.09;100.00
6028;BME280;3042;43.194;27.646;2023-03-20T01:48:07;102034.97;;;12.72;100.00
6028;BME280;3042;43.194;27.646;2023-03-20T01:50:38;101969.97;;;12.23;100.00
6028;BME280;3042;43.194;27.646;2023-03-20T01:53:09;101799.59;;;11.13;100.00
6028;BME280;3042;43.194;27.646;2023-03-20T01:55:40;101978.94;;;12.44;100.00
6028;BME280;3042;43.194;27.646;2023-03-20T01:58:12;102090.22;;;13.17;100.00
6028;BME280;3042;43.194;27.646;2023-03-20T02:00:41;101955.84;;;12.18;100.00
6028;BME280;3042;43.194;27.646;2023-03-20T02:03:10;101726.53;;;10.88;100.00
6028;BME280;3042;43.194;27.646;2023-03-20T02:05:37;102077.88;;;12.82;100.00
6028;BME280;3042;43.194;27.646;2023-03-20T02:08:14;102089.34;;;13.17;100.00
6028;BME280;3042;43.194;27.646;2023-03-20T02:10:44;102088.72;;;13.06;100.00
6028;BME280;3042;43.194;27.646;2023-03-20T02:13:12;101557.41;;;10.10;100.00
6028;BME280;3042;43.194;27.646;2023-03-20T02:16:00;101451.53;;;9.65;100.00
6028;BME280;3042;43.194;27.646;2023-03-20T02:18:29;102072.22;;;13.35;100.00
6028;BME280;3042;43.194;27.646;2023-03-20T02:27:23;101829.53;;;11.84;100.00
6028;BME280;3042;43.194;27.646;2023-03-20T02:30:17;102052.53;;;13.24;100.00
6028;BME280;3042;43.194;27.646;2023-03-20T02:39:15;102074.03;;;13.21;100.00
6028;BME280;3042;43.194;27.646;2023-03-20T02:41:52;101916.31;;;12.37;100.00
6028;BME280;3042;43.194;27.646;2023-03-20T02:44:25;102050.78;;;13.08;100.00
6028;BME280;3042;43.194;27.646;2023-03-20T02:47:02;101935.59;;;12.42;100.00
6028;BME280;3042;43.194;27.646;2023-03-20T02:49:44;101911.66;;;12.31;100.00
6028;BME280;3042;43.194;27.646;2023-03-20T02:52:17;102076.16;;;12.97;100.00
6028;BME280;3042;43.194;27.646;2023-03-20T02:54:54;102083.94;;;12.82;100.00
6028;BME280;3042;43.194;27.646;2023-03-20T02:57:34;102087.91;;;12.61;100.00
6028;BME280;3042;43.194;27.646;2023-03-20T03:00:07;102083.78;;;12.50;100.00
6028;BME280;3042;43.194;27.646;2023-03-20T03:02:38;102073.25;;;12.46;100.00
6028;BME280;3042;43.194;27.646;2023-03-20T03:05:14;102086.91;;;12.59;100.00
6028;BME280;3042;43.194;27.646;2023-03-20T03:07:44;102090.34;;;12.58;100.00
6028;BME280;3042;43.194;27.646;2023-03-20T03:10:16;101932.94;;;11.81;100.00
6028;BME280;3042;43.194;27.646;2023-03-20T03:12:47;101939.41;;;11.88;100.00
6028;BME280;3042;43.194;27.646;2023-03-20T03:15:18;102078.63;;;12.64;100.00
6028;BME280;3042;43.194;27.646;2023-03-20T03:17:48;102084.44;;;12.45;100.00
6028;BME280;3042;43.194;27.646;2023-03-20T03:20:21;102087.38;;;12.52;100.00
6028;BME280;3042;43.194;27.646;2023-03-20T03:22:49;101780.38;;;10.52;100.00
6028;BME280;3042;43.194;27.646;2023-03-20T03:25:20;101991.38;;;12.06;100.00
6028;BME280;3042;43.194;27.646;2023-03-20T03:27:53;101949.09;;;11.77;100.00
6028;BME280;3042;43.194;27.646;2023-03-20T03:30:25;101890.53;;;11.06;100.00
6028;BME280;3042;43.194;27.646;2023-03-20T03:33:11;102092.22;;;12.45;100.00
6028;BME280;3042;43.194;27.646;2023-03-20T03:35:42;102035.88;;;11.98;100.00
6028;BME280;3042;43.194;27.646;2023-03-20T03:38:24;102084.00;;;12.53;100.00
6028;BME280;3042;43.194;27.646;2023-03-20T03:41:02;102066.25;;;12.01;100.00
6028;BME280;3042;43.194;27.646;2023-03-20T03:43:35;101714.47;;;10.02;100.00
6028;BME280;3042;43.194;27.646;2023-03-20T03:46:09;102070.22;;;12.39;100.00
6028;BME280;3042;43.194;27.646;2023-03-20T03:48:44;102010.72;;;12.11;100.00
6028;BME280;3042;43.194;27.646;2023-03-20T03:51:15;101691.53;;;10.22;100.00
6028;BME280;3042;43.194;27.646;2023-03-20T03:53:48;102064.78;;;12.34;100.00
6028;BME280;3042;43.194;27.646;2023-03-20T03:56:20;102088.44;;;12.11;100.00
6028;BME280;3042;43.194;27.646;2023-03-20T03:58:52;101795.78;;;9.96;100.00
6028;BME280;3042;43.194;27.646;2023-03-20T04:01:23;101863.69;;;10.76;100.00
6028;BME280;3042;43.194;27.646;2023-03-20T04:03:55;102086.41;;;12.20;100.00
6028;BME280;3042;43.194;27.646;2023-03-20T04:06:24;101918.88;;;11.33;100.00
6028;BME280;3042;43.194;27.646;2023-03-20T04:08:54;102064.41;;;12.28;100.00
6028;BME280;3042;43.194;27.646;2023-03-20T04:11:24;102080.59;;;12.54;100.00
6028;BME280;3042;43.194;27.646;2023-03-20T04:13:52;102084.44;;;12.45;100.00
6028;BME280;3042;43.194;27.646;2023-03-20T04:16:21;102083.28;;;12.55;100.00
6028;BME280;3042;43.194;27.646;2023-03-20T04:18:49;102080.94;;;12.60;100.00
6028;BME280;3042;43.194;27.646;2023-03-20T04:21:16;102076.97;;;12.66;100.00
6028;BME280;3042;43.194;27.646;2023-03-20T04:23:44;101762.81;;;10.89;100.00
6028;BME280;3042;43.194;27.646;2023-03-20T04:26:11;101939.81;;;11.66;100.00
6028;BME280;3042;43.194;27.646;2023-03-20T04:28:40;101677.03;;;10.52;100.00
6028;BME280;3042;43.194;27.646;2023-03-20T04:31:07;102066.81;;;12.55;100.00
6028;BME280;3042;43.194;27.646;2023-03-20T04:33:35;102084.25;;;12.72;100.00
6028;BME280;3042;43.194;27.646;2023-03-20T04:36:03;102096.50;;;12.30;100.00
6028;BME280;3042;43.194;27.646;2023-03-20T04:38:30;102091.31;;;12.30;100.00
6028;BME280;3042;43.194;27.646;2023-03-20T04:40:57;102093.19;;;12.33;100.00
6028;BME280;3042;43.194;27.646;2023-03-20T04:43:24;102087.66;;;12.41;100.00
6028;BME280;3042;43.194;27.646;2023-03-20T04:45:53;102106.69;;;12.27;100.00
6028;BME280;3042;43.194;27.646;2023-03-20T04:48:20;102111.28;;;12.03;100.00
6028;BME280;3042;43.194;27.646;2023-03-20T04:50:47;101966.81;;;11.41;100.00
6028;BME280;3042;43.194;27.646;2023-03-20T04:53:15;101658.34;;;10.00;100.00
6028;BME280;3042;43.194;27.646;2023-03-20T04:55:43;102085.84;;;12.70;100.00
6028;BME280;3042;43.194;27.646;2023-03-20T04:58:10;102067.16;;;12.61;100.00
6028;BME280;3042;43.194;27.646;2023-03-20T05:00:37;102084.88;;;12.53;100.00
6028;BME280;3042;43.194;27.646;2023-03-20T05:03:06;102081.59;;;13.02;100.00
6028;BME280;3042;43.194;27.646;2023-03-20T05:05:34;102088.56;;;13.03;100.00
6028;BME280;3042;43.194;27.646;2023-03-20T05:08:03;102084.06;;;13.15;100.00
6028;BME280;3042;43.194;27.646;2023-03-20T05:10:30;102078.47;;;13.24;100.00
6028;BME280;3042;43.194;27.646;2023-03-20T05:12:57;102076.34;;;13.32;100.00
6028;BME280;3042;43.194;27.646;2023-03-20T05:15:24;102077.72;;;13.41;100.00
6028;BME280;3042;43.194;27.646;2023-03-20T05:17:51;101995.50;;;13.09;100.00
6028;BME280;3042;43.194;27.646;2023-03-20T05:20:23;102062.41;;;13.79;100.00
6028;BME280;3042;43.194;27.646;2023-03-20T05:22:50;102085.25;;;13.37;100.00
6028;BME280;3042;43.194;27.646;2023-03-20T05:25:17;101680.75;;;11.16;100.00
6028;BME280;3042;43.194;27.646;2023-03-20T05:27:45;102003.22;;;12.76;100.00
6028;BME280;3042;43.194;27.646;2023-03-20T05:30:13;102005.81;;;12.76;100.00
6028;BME280;3042;43.194;27.646;2023-03-20T05:32:40;101912.22;;;12.25;100.00
6028;BME280;3042;43.194;27.646;2023-03-20T05:35:09;102075.56;;;13.49;100.00
6028;BME280;3042;43.194;27.646;2023-03-20T05:37:38;102071.84;;;13.77;100.00
6028;BME280;3042;43.194;27.646;2023-03-20T05:40:06;101958.00;;;13.35;100.00
6028;BME280;3042;43.194;27.646;2023-03-20T05:42:33;101629.47;;;11.55;100.00
6028;BME280;3042;43.194;27.646;2023-03-20T05:45:00;102070.06;;;14.26;100.00
6028;BME280;3042;43.194;27.646;2023-03-20T05:47:28;102059.69;;;14.44;100.00
6028;BME280;3042;43.194;27.646;2023-03-20T05:49:58;102045.06;;;14.46;100.00
6028;BME280;3042;43.194;27.646;2023-03-20T05:52:25;101896.50;;;13.68;100.00
6028;BME280;3042;43.194;27.646;2023-03-20T05:54:53;101927.91;;;14.07;100.00
6028;BME280;3042;43.194;27.646;2023-03-20T05:57:20;102079.09;;;14.85;100.00
6028;BME280;3042;43.194;27.646;2023-03-20T05:59:47;101765.78;;;12.99;100.00
6028;BME280;3042;43.194;27.646;2023-03-20T06:02:15;102061.66;;;15.02;100.00
6028;BME280;3042;43.194;27.646;2023-03-20T06:04:42;102071.38;;;14.87;100.00
6028;BME280;3042;43.194;27.646;2023-03-20T06:07:09;102080.28;;;14.74;100.00
6028;BME280;3042;43.194;27.646;2023-03-20T06:09:36;102076.84;;;14.93;100.00
6028;BME280;3042;43.194;27.646;2023-03-20T06:12:05;101991.34;;;14.83;100.00
6028;BME280;3042;43.194;27.646;2023-03-20T06:14:32;101903.22;;;14.35;100.00
6028;BME280;3042;43.194;27.646;2023-03-20T06:16:59;102058.53;;;15.47;100.00
6028;BME280;3042;43.194;27.646;2023-03-20T06:19:26;102056.06;;;15.50;100.00
6028;BME280;3042;43.194;27.646;2023-03-20T06:21:53;101969.22;;;14.73;100.00
6028;BME280;3042;43.194;27.646;2023-03-20T06:24:20;102082.94;;;14.93;100.00
6028;BME280;3042;43.194;27.646;2023-03-20T06:26:47;102097.84;;;14.27;100.00
6028;BME280;3042;43.194;27.646;2023-03-20T06:29:16;102072.59;;;14.77;100.00
6028;BME280;3042;43.194;27.646;2023-03-20T06:31:43;101800.44;;;12.51;100.00
6028;BME280;3042;43.194;27.646;2023-03-20T06:34:10;101772.41;;;12.60;100.00
6028;BME280;3042;43.194;27.646;2023-03-20T06:36:37;102090.25;;;14.48;100.00
6028;BME280;3042;43.194;27.646;2023-03-20T06:39:04;102032.38;;;14.52;100.00
6028;BME280;3042;43.194;27.646;2023-03-20T06:41:32;102103.88;;;14.61;100.00
6028;BME280;3042;43.194;27.646;2023-03-20T06:43:59;102103.88;;;14.61;100.00
6028;BME280;3042;43.194;27.646;2023-03-20T06:46:28;102097.69;;;14.75;100.00
6028;BME280;3042;43.194;27.646;2023-03-20T06:48:55;102117.22;;;14.50;100.00
6028;BME280;3042;43.194;27.646;2023-03-20T06:51:22;102106.94;;;14.70;100.00
6028;BME280;3042;43.194;27.646;2023-03-20T06:53:49;102100.78;;;14.86;100.00
6028;BME280;3042;43.194;27.646;2023-03-20T06:56:16;102108.28;;;14.62;100.00
6028;BME280;3042;43.194;27.646;2023-03-20T06:58:43;102115.94;;;14.59;100.00
6028;BME280;3042;43.194;27.646;2023-03-20T07:01:11;102102.72;;;14.90;100.00
6028;BME280;3042;43.194;27.646;2023-03-20T07:03:40;102110.09;;;14.81;100.00
6028;BME280;3042;43.194;27.646;2023-03-20T07:06:07;102123.53;;;14.38;100.00
6028;BME280;3042;43.194;27.646;2023-03-20T07:08:36;102037.84;;;13.72;100.00
6028;BME280;3042;43.194;27.646;2023-03-20T07:11:04;102015.63;;;13.95;100.00
6028;BME280;3042;43.194;27.646;2023-03-20T07:13:31;102116.09;;;14.62;100.00
6028;BME280;3042;43.194;27.646;2023-03-20T07:16:00;101995.47;;;14.25;100.00
6028;BME280;3042;43.194;27.646;2023-03-20T07:18:27;102096.25;;;14.99;100.00
6028;BME280;3042;43.194;27.646;2023-03-20T07:21:00;102098.09;;;15.20;100.00
6028;BME280;3042;43.194;27.646;2023-03-20T07:23:27;101972.03;;;14.24;100.00
6028;BME280;3042;43.194;27.646;2023-03-20T07:25:55;101987.84;;;14.46;100.00
6028;BME280;3042;43.194;27.646;2023-03-20T07:28:22;102096.78;;;14.92;100.00
6028;BME280;3042;43.194;27.646;2023-03-20T07:30:50;102095.81;;;14.90;100.00
6028;BME280;3042;43.194;27.646;2023-03-20T07:33:17;102080.97;;;15.25;100.00
6028;BME280;3042;43.194;27.646;2023-03-20T07:35:45;102080.91;;;15.24;100.00
6028;BME280;3042;43.194;27.646;2023-03-20T07:38:13;102085.88;;;15.19;100.00
6028;BME280;3042;43.194;27.646;2023-03-20T07:40:40;101968.31;;;14.72;100.00
6028;BME280;3042;43.194;27.646;2023-03-20T07:43:07;102061.28;;;15.69;100.00
6028;BME280;3042;43.194;27.646;2023-03-20T07:45:34;102062.59;;;15.98;100.00
6028;BME280;3042;43.194;27.646;2023-03-20T07:48:01;102065.50;;;16.25;100.00
6028;BME280;3042;43.194;27.646;2023-03-20T07:50:28;101768.06;;;14.74;100.00
6028;BME280;3042;43.194;27.646;2023-03-20T07:52:55;102051.50;;;16.65;100.00
6028;BME280;3042;43.194;27.646;2023-03-20T07:55:24;102056.03;;;16.70;100.00
6028;BME280;3042;43.194;27.646;2023-03-20T07:57:51;102069.84;;;16.46;100.00
6028;BME280;3042;43.194;27.646;2023-03-20T08:00:19;102069.50;;;16.59;100.00
6028;BME280;3042;43.194;27.646;2023-03-20T08:02:46;102005.25;;;16.19;100.00
6028;BME280;3042;43.194;27.646;2023-03-20T08:05:13;102072.13;;;16.38;100.00
6028;BME280;3042;43.194;27.646;2023-03-20T08:07:40;101730.44;;;14.09;100.00
6028;BME280;3042;43.194;27.646;2023-03-20T08:10:07;102039.94;;;15.76;100.00
6028;BME280;3042;43.194;27.646;2023-03-20T08:12:36;101781.41;;;14.25;100.00
6028;BME280;3042;43.194;27.646;2023-03-20T08:15:03;102094.41;;;16.11;100.00
6028;BME280;3042;43.194;27.646;2023-03-20T08:17:31;101881.31;;;14.85;100.00
6028;BME280;3042;43.194;27.646;2023-03-20T08:19:58;101674.59;;;13.81;100.00
6028;BME280;3042;43.194;27.646;2023-03-20T08:22:25;102005.94;;;16.15;100.00
6028;BME280;3042;43.194;27.646;2023-03-20T08:24:52;101823.38;;;15.30;100.00
6028;BME280;3042;43.194;27.646;2023-03-20T08:27:19;102062.63;;;17.26;100.00
6028;BME280;3042;43.194;27.646;2023-03-20T08:29:47;102055.16;;;17.59;100.00
6028;BME280;3042;43.194;27.646;2023-03-20T08:32:14;101857.09;;;16.09;100.00
6028;BME280;3042;43.194;27.646;2023-03-20T08:34:41;102067.38;;;17.36;100.00
6028;BME280;3042;43.194;27.646;2023-03-20T08:37:08;102069.03;;;17.34;100.00
6028;BME280;3042;43.194;27.646;2023-03-20T08:39:36;102075.91;;;17.32;100.00
6028;BME280;3042;43.194;27.646;2023-03-20T08:42:04;102070.47;;;17.26;100.00
6028;BME280;3042;43.194;27.646;2023-03-20T08:44:31;102074.78;;;17.25;100.00
6028;BME280;3042;43.194;27.646;2023-03-20T08:47:00;101746.59;;;15.62;100.00
6028;BME280;3042;43.194;27.646;2023-03-20T08:49:28;102063.03;;;17.37;100.00
6028;BME280;3042;43.194;27.646;2023-03-20T08:51:55;102057.38;;;17.48;100.00
6028;BME280;3042;43.194;27.646;2023-03-20T08:54:22;102057.59;;;17.55;100.00
6028;BME280;3042;43.194;27.646;2023-03-20T08:56:49;101856.16;;;16.30;100.00
6028;BME280;3042;43.194;27.646;2023-03-20T08:59:16;102039.63;;;17.86;100.00
6028;BME280;3042;43.194;27.646;2023-03-20T09:01:44;102036.19;;;18.13;100.00
6028;BME280;3042;43.194;27.646;2023-03-20T09:04:13;102051.06;;;17.90;100.00
6028;BME280;3042;43.194;27.646;2023-03-20T09:06:40;101631.50;;;15.72;100.00
6028;BME280;3042;43.194;27.646;2023-03-20T09:09:07;102024.75;;;18.37;100.00
6028;BME280;3042;43.194;27.646;2023-03-20T09:11:35;101947.94;;;18.63;100.00
6028;BME280;3042;43.194;27.646;2023-03-20T09:14:02;102001.84;;;19.43;100.00
6028;BME280;3042;43.194;27.646;2023-03-20T09:16:29;102000.72;;;19.66;100.00
6028;BME280;3042;43.194;27.646;2023-03-20T09:18:56;101964.72;;;18.70;100.00
6028;BME280;3042;43.194;27.646;2023-03-20T09:21:25;102010.97;;;19.27;100.00
6028;BME280;3042;43.194;27.646;2023-03-20T09:23:52;102017.81;;;19.22;100.00
6028;BME280;3042;43.194;27.646;2023-03-20T09:26:19;101992.97;;;19.37;100.00
6028;BME280;3042;43.194;27.646;2023-03-20T09:28:46;101844.09;;;17.79;100.00
6028;BME280;3042;43.194;27.646;2023-03-20T09:31:13;102041.09;;;18.29;100.00
6028;BME280;3042;43.194;27.646;2023-03-20T09:33:40;102041.09;;;18.04;100.00
6028;BME280;3042;43.194;27.646;2023-03-20T09:36:07;102015.00;;;18.05;100.00
6028;BME280;3042;43.194;27.646;2023-03-20T09:38:37;101973.75;;;17.74;100.00
6028;BME280;3042;43.194;27.646;2023-03-20T09:41:13;101946.59;;;18.47;100.00
6028;BME280;3042;43.194;27.646;2023-03-20T09:43:53;101979.91;;;19.09;100.00
6028;BME280;3042;43.194;27.646;2023-03-20T09:46:34;101867.72;;;18.65;100.00
6028;BME280;3042;43.194;27.646;2023-03-20T09:49:12;101983.59;;;19.15;100.00
6028;BME280;3042;43.194;27.646;2023-03-20T09:51:46;101982.56;;;19.10;100.00
6028;BME280;3042;43.194;27.646;2023-03-20T09:54:23;101932.22;;;18.63;100.00
6028;BME280;3042;43.194;27.646;2023-03-20T09:56:53;101971.59;;;19.24;100.00
6028;BME280;3042;43.194;27.646;2023-03-20T09:59:22;101987.34;;;18.68;100.00
6028;BME280;3042;43.194;27.646;2023-03-20T10:01:52;101978.38;;;18.87;100.00
6028;BME280;3042;43.194;27.646;2023-03-20T10:04:22;101962.50;;;19.11;100.00
6028;BME280;3042;43.194;27.646;2023-03-20T10:06:53;101958.16;;;19.43;100.00
6028;BME280;3042;43.194;27.646;2023-03-20T10:09:24;101953.50;;;19.33;100.00
6028;BME280;3042;43.194;27.646;2023-03-20T10:12:02;101956.13;;;19.01;100.00
6028;BME280;3042;43.194;27.646;2023-03-20T10:14:37;101623.75;;;17.26;100.00
6028;BME280;3042;43.194;27.646;2023-03-20T10:17:19;101956.19;;;19.04;100.00
6028;BME280;3042;43.194;27.646;2023-03-20T10:19:54;101957.41;;;18.87;100.00
6028;BME280;3042;43.194;27.646;2023-03-20T10:22:25;101796.16;;;18.06;100.00
6028;BME280;3042;43.194;27.646;2023-03-20T10:25:02;101890.16;;;18.57;100.00
6028;BME280;3042;43.194;27.646;2023-03-20T10:27:34;101903.28;;;18.59;100.00
6028;BME280;3042;43.194;27.646;2023-03-20T10:30:19;101945.88;;;19.10;100.00
6028;BME280;3042;43.194;27.646;2023-03-20T10:32:51;101573.09;;;17.49;100.00
6028;BME280;3042;43.194;27.646;2023-03-20T10:35:25;101810.25;;;18.40;100.00
6028;BME280;3042;43.194;27.646;2023-03-20T10:38:08;101928.84;;;18.94;100.00
6028;BME280;3042;43.194;27.646;2023-03-20T10:40:40;101946.09;;;18.59;100.00
6028;BME280;3042;43.194;27.646;2023-03-20T10:43:14;101916.03;;;19.05;100.00
6028;BME280;3042;43.194;27.646;2023-03-20T10:45:45;101906.41;;;19.36;100.00
6028;BME280;3042;43.194;27.646;2023-03-20T10:48:18;101911.47;;;18.98;100.00
6028;BME280;3042;43.194;27.646;2023-03-20T10:50:50;101913.94;;;18.92;100.00
6028;BME280;3042;43.194;27.646;2023-03-20T10:53:30;101798.19;;;18.16;100.00
6028;BME280;3042;43.194;27.646;2023-03-20T10:56:02;101907.25;;;19.03;100.00
6028;BME280;3042;43.194;27.646;2023-03-20T10:58:32;101904.06;;;19.13;100.00
6028;BME280;3042;43.194;27.646;2023-03-20T11:01:01;101890.59;;;19.33;100.00
6028;BME280;3042;43.194;27.646;2023-03-20T11:03:30;101634.41;;;18.21;100.00
6028;BME280;3042;43.194;27.646;2023-03-20T11:06:00;101889.53;;;19.25;100.00
6028;BME280;3042;43.194;27.646;2023-03-20T11:08:32;101884.22;;;19.56;100.00
6028;BME280;3042;43.194;27.646;2023-03-20T11:11:03;101622.53;;;18.01;100.00
6028;BME280;3042;43.194;27.646;2023-03-20T11:13:32;101875.81;;;19.35;100.00
6028;BME280;3042;43.194;27.646;2023-03-20T11:16:16;101870.06;;;19.48;100.00
6028;BME280;3042;43.194;27.646;2023-03-20T11:18:45;101869.94;;;19.45;100.00
6028;BME280;3042;43.194;27.646;2023-03-20T11:21:17;101849.94;;;19.82;100.00
6028;BME280;3042;43.194;27.646;2023-03-20T11:23:45;101870.75;;;19.43;100.00
6028;BME280;3042;43.194;27.646;2023-03-20T11:26:15;101835.28;;;19.55;100.00
6028;BME280;3042;43.194;27.646;2023-03-20T11:28:49;101826.50;;;19.55;100.00
6028;BME280;3042;43.194;27.646;2023-03-20T11:31:19;101678.66;;;18.77;100.00
6028;BME280;3042;43.194;27.646;2023-03-20T11:33:52;101864.56;;;19.39;100.00
6028;BME280;3042;43.194;27.646;2023-03-20T11:36:28;101826.84;;;18.70;100.00
6028;BME280;3042;43.194;27.646;2023-03-20T11:39:00;101870.31;;;19.26;100.00
6028;BME280;3042;43.194;27.646;2023-03-20T11:41:30;101869.25;;;19.17;100.00
6028;BME280;3042;43.194;27.646;2023-03-20T11:43:57;101877.53;;;19.01;100.00
6028;BME280;3042;43.194;27.646;2023-03-20T11:46:24;101745.81;;;18.13;100.00
6028;BME280;3042;43.194;27.646;2023-03-20T11:49:03;101849.88;;;18.52;100.00
6028;BME280;3042;43.194;27.646;2023-03-20T11:51:32;101605.44;;;16.97;100.00
6028;BME280;3042;43.194;27.646;2023-03-20T11:54:02;101336.41;;;15.28;100.00
6028;BME280;3042;43.194;27.646;2023-03-20T11:56:33;101857.91;;;18.29;100.00
6028;BME280;3042;43.194;27.646;2023-03-20T11:59:03;101851.28;;;18.41;100.00
6028;BME280;3042;43.194;27.646;2023-03-20T12:01:38;101837.16;;;18.66;100.00
6028;BME280;3042;43.194;27.646;2023-03-20T12:04:11;101843.72;;;18.50;100.00
6028;BME280;3042;43.194;27.646;2023-03-20T12:06:46;101852.75;;;18.31;100.00
6028;BME280;3042;43.194;27.646;2023-03-20T12:09:27;101766.22;;;18.25;100.00
6028;BME280;3042;43.194;27.646;2023-03-20T12:12:01;101766.88;;;18.18;100.00
6028;BME280;3042;43.194;27.646;2023-03-20T12:14:37;101817.88;;;18.62;100.00
6028;BME280;3042;43.194;27.646;2023-03-20T12:17:33;101830.22;;;18.66;100.00
6028;BME280;3042;43.194;27.646;2023-03-20T12:20:06;101838.44;;;18.48;100.00
6028;BME280;3042;43.194;27.646;2023-03-20T12:22:44;101835.66;;;18.44;100.00
6028;BME280;3042;43.194;27.646;2023-03-20T12:25:20;101824.59;;;18.52;100.00
6028;BME280;3042;43.194;27.646;2023-03-20T12:27:55;101748.97;;;18.31;100.00
6028;BME280;3042;43.194;27.646;2023-03-20T12:30:30;101679.25;;;18.33;100.00
6028;BME280;3042;43.194;27.646;2023-03-20T12:33:02;101722.94;;;18.06;100.00
6028;BME280;3042;43.194;27.646;2023-03-20T12:35:35;101749.22;;;18.72;100.00
6028;BME280;3042;43.194;27.646;2023-03-20T12:38:10;101674.25;;;18.11;100.00
6028;BME280;3042;43.194;27.646;2023-03-20T12:40:44;101811.78;;;18.63;100.00
6028;BME280;3042;43.194;27.646;2023-03-20T12:43:15;101806.88;;;18.74;100.00
6028;BME280;3042;43.194;27.646;2023-03-20T12:45:50;101805.59;;;18.60;100.00
6028;BME280;3042;43.194;27.646;2023-03-20T12:48:36;101781.25;;;18.94;100.00
6028;BME280;3042;43.194;27.646;2023-03-20T12:51:11;101675.72;;;18.01;100.00
6028;BME280;3042;43.194;27.646;2023-03-20T12:53:50;101513.50;;;16.79;100.00
6028;BME280;3042;43.194;27.646;2023-03-20T12:56:31;101723.00;;;18.09;100.00
6028;BME280;3042;43.194;27.646;2023-03-20T12:59:15;101794.50;;;18.68;100.00
6028;BME280;3042;43.194;27.646;2023-03-20T13:01:49;101777.28;;;19.08;100.00
6028;BME280;3042;43.194;27.646;2023-03-20T13:04:40;101690.72;;;18.08;100.00
6028;BME280;3042;43.194;27.646;2023-03-20T13:07:18;101800.03;;;18.49;100.00
6028;BME280;3042;43.194;27.646;2023-03-20T13:10:01;101781.63;;;18.76;100.00
6028;BME280;3042;43.194;27.646;2023-03-20T13:12:44;101791.03;;;18.69;100.00
6028;BME280;3042;43.194;27.646;2023-03-20T13:15:22;101748.59;;;17.90;100.00
6028;BME280;3042;43.194;27.646;2023-03-20T13:17:59;101772.56;;;18.04;100.00
6028;BME280;3042;43.194;27.646;2023-03-20T13:20:29;101779.16;;;18.20;100.00